sensor_id;sensor_type;location;lat;lon;timestamp;temperature;humidity
32865;DHT22;19219;44.500;11.188;2023-09-19T00:02:17;23.10;99.90
32865;DHT22;19219;44.500;11.188;2023-09-19T00:04:43;22.90;99.90
32865;DHT22;19219;44.500;11.188;2023-09-19T00:07:09;22.80;99.90
32865;DHT22;19219;44.500;11.188;2023-09-19T00:09:34;22.80;99.90
32865;DHT22;19219;44.500;11.188;2023-09-19T00:12:06;22.70;99.90
32865;DHT22;19219;44.500;11.188;2023-09-19T00:14:32;22.50;99.90
32865;DHT22;19219;44.500;11.188;2023-09-19T00:17:04;22.50;99.90
32865;DHT22;19219;44.500;11.188;2023-09-19T00:19:37;22.40;99.90
32865;DHT22;19219;44.500;11.188;2023-09-19T00:22:03;22.40;99.90
32865;DHT22;19219;44.500;11.188;2023-09-19T00:24:29;22.40;99.90
32865;DHT22;19219;44.500;11.188;2023-09-19T00:26:56;22.40;99.90
32865;DHT22;19219;44.500;11.188;2023-09-19T00:29:25;22.40;99.90
32865;DHT22;19219;44.500;11.188;2023-09-19T00:31:54;22.40;99.90
32865;DHT22;19219;44.500;11.188;2023-09-19T00:34:20;22.40;99.90
32865;DHT22;19219;44.500;11.188;2023-09-19T00:36:46;22.60;99.90
32865;DHT22;19219;44.500;11.188;2023-09-19T00:39:11;22.50;99.90
32865;DHT22;19219;44.500;11.188;2023-09-19T00:41:37;22.50;99.90
32865;DHT22;19219;44.500;11.188;2023-09-19T00:44:03;22.50;99.90
32865;DHT22;19219;44.500;11.188;2023-09-19T00:46:31;22.40;99.90
32865;DHT22;19219;44.500;11.188;2023-09-19T00:48:58;22.30;99.90
32865;DHT22;19219;44.500;11.188;2023-09-19T00:51:25;22.20;99.90
32865;DHT22;19219;44.500;11.188;2023-09-19T00:53:52;22.10;99.90
32865;DHT22;19219;44.500;11.188;2023-09-19T00:56:18;22.00;99.90
32865;DHT22;19219;44.500;11.188;2023-09-19T00:58:47;22.00;99.90
32865;DHT22;19219;44.500;11.188;2023-09-19T01:01:13;21.90;99.90
32865;DHT22;19219;44.500;11.188;2023-09-19T01:03:44;21.90;99.90
32865;DHT22;19219;44.500;11.188;2023-09-19T01:06:10;21.90;99.90
32865;DHT22;19219;44.500;11.188;2023-09-19T01:08:36;21.90;99.90
32865;DHT22;19219;44.500;11.188;2023-09-19T01:18:52;21.80;99.90
32865;DHT22;19219;44.500;11.188;2023-09-19T01:21:44;21.60;99.90
32865;DHT22;19219;44.500;11.188;2023-09-19T01:27:17;21.30;99.90
32865;DHT22;19219;44.500;11.188;2023-09-19T01:29:46;21.30;99.90
32865;DHT22;19219;44.500;11.188;2023-09-19T01:32:21;21.20;99.90
32865;DHT22;19219;44.500;11.188;2023-09-19T01:34:49;21.20;99.90
32865;DHT22;19219;44.500;11.188;2023-09-19T01:37:16;21.20;99.90
32865;DHT22;19219;44.500;11.188;2023-09-19T01:39:46;21.20;99.90
32865;DHT22;19219;44.500;11.188;2023-09-19T01:42:41;21.20;99.90
32865;DHT22;19219;44.500;11.188;2023-09-19T01:51:42;20.90;99.90
32865;DHT22;19219;44.500;11.188;2023-09-19T01:54:12;20.70;99.90
32865;DHT22;19219;44.500;11.188;2023-09-19T01:56:59;20.60;99.90
32865;DHT22;19219;44.500;11.188;2023-09-19T01:59:35;20.50;99.90
32865;DHT22;19219;44.500;11.188;2023-09-19T02:02:04;20.30;99.90
32865;DHT22;19219;44.500;11.188;2023-09-19T02:04:33;20.30;99.90
32865;DHT22;19219;44.500;11.188;2023-09-19T02:07:00;20.30;99.90
32865;DHT22;19219;44.500;11.188;2023-09-19T02:09:26;20.30;99.90
32865;DHT22;19219;44.500;11.188;2023-09-19T02:11:52;20.30;99.90
32865;DHT22;19219;44.500;11.188;2023-09-19T02:14:18;20.30;99.90
32865;DHT22;19219;44.500;11.188;2023-09-19T02:16:45;20.30;99.90
32865;DHT22;19219;44.500;11.188;2023-09-19T02:19:11;20.30;99.90
32865;DHT22;19219;44.500;11.188;2023-09-19T02:21:37;20.20;99.90
32865;DHT22;19219;44.500;11.188;2023-09-19T02:24:06;20.20;99.90
32865;DHT22;19219;44.500;11.188;2023-09-19T02:26:35;20.10;99.90
32865;DHT22;19219;44.500;11.188;2023-09-19T02:29:02;20.00;99.90
32865;DHT22;19219;44.500;11.188;2023-09-19T02:31:30;20.00;99.90
32865;DHT22;19219;44.500;11.188;2023-09-19T02:33:56;20.00;99.90
32865;DHT22;19219;44.500;11.188;2023-09-19T02:36:22;20.10;99.90
32865;DHT22;19219;44.500;11.188;2023-09-19T02:38:49;20.10;99.90
32865;DHT22;19219;44.500;11.188;2023-09-19T02:41:15;20.00;99.90
32865;DHT22;19219;44.500;11.188;2023-09-19T02:43:40;20.10;99.90
32865;DHT22;19219;44.500;11.188;2023-09-19T02:46:08;20.10;99.90
32865;DHT22;19219;44.500;11.188;2023-09-19T02:48:34;20.20;99.90
32865;DHT22;19219;44.500;11.188;2023-09-19T02:51:01;20.30;99.90
32865;DHT22;19219;44.500;11.188;2023-09-19T02:53:28;20.30;99.90
32865;DHT22;19219;44.500;11.188;2023-09-19T02:55:56;20.30;99.90
32865;DHT22;19219;44.500;11.188;2023-09-19T02:58:22;20.20;99.90
32865;DHT22;19219;44.500;11.188;2023-09-19T03:00:49;20.20;99.90
32865;DHT22;19219;44.500;11.188;2023-09-19T03:03:15;20.00;99.90
32865;DHT22;19219;44.500;11.188;2023-09-19T03:05:41;19.90;99.90
32865;DHT22;19219;44.500;11.188;2023-09-19T03:08:12;19.70;99.90
32865;DHT22;19219;44.500;11.188;2023-09-19T03:10:40;19.60;99.90
32865;DHT22;19219;44.500;11.188;2023-09-19T03:13:06;19.60;99.90
32865;DHT22;19219;44.500;11.188;2023-09-19T03:15:35;19.50;99.90
32865;DHT22;19219;44.500;11.188;2023-09-19T03:18:04;19.50;99.90
32865;DHT22;19219;44.500;11.188;2023-09-19T03:20:31;19.50;99.90
32865;DHT22;19219;44.500;11.188;2023-09-19T03:22:57;19.60;99.90
32865;DHT22;19219;44.500;11.188;2023-09-19T03:25:23;19.60;99.90
32865;DHT22;19219;44.500;11.188;2023-09-19T03:27:48;19.60;99.90
32865;DHT22;19219;44.500;11.188;2023-09-19T03:30:14;19.70;99.90
32865;DHT22;19219;44.500;11.188;2023-09-19T03:32:44;19.80;99.90
32865;DHT22;19219;44.500;11.188;2023-09-19T03:35:11;19.90;99.90
32865;DHT22;19219;44.500;11.188;2023-09-19T03:37:40;19.90;99.90
32865;DHT22;19219;44.500;11.188;2023-09-19T03:40:06;20.00;99.90
32865;DHT22;19219;44.500;11.188;2023-09-19T03:42:32;20.00;99.90
32865;DHT22;19219;44.500;11.188;2023-09-19T03:45:01;19.80;99.90
32865;DHT22;19219;44.500;11.188;2023-09-19T03:47:31;19.60;99.90
32865;DHT22;19219;44.500;11.188;2023-09-19T03:49:56;19.60;99.90
32865;DHT22;19219;44.500;11.188;2023-09-19T03:52:22;19.40;99.90
32865;DHT22;19219;44.500;11.188;2023-09-19T03:54:48;19.30;99.90
32865;DHT22;19219;44.500;11.188;2023-09-19T03:57:14;19.20;99.90
32865;DHT22;19219;44.500;11.188;2023-09-19T03:59:42;19.20;99.90
32865;DHT22;19219;44.500;11.188;2023-09-19T04:02:08;19.30;99.90
32865;DHT22;19219;44.500;11.188;2023-09-19T04:04:50;19.30;99.90
32865;DHT22;19219;44.500;11.188;2023-09-19T04:07:16;19.30;99.90
32865;DHT22;19219;44.500;11.188;2023-09-19T04:09:42;19.20;99.90
32865;DHT22;19219;44.500;11.188;2023-09-19T04:12:08;19.10;99.90
32865;DHT22;19219;44.500;11.188;2023-09-19T04:14:36;19.00;99.90
32865;DHT22;19219;44.500;11.188;2023-09-19T04:17:02;19.00;99.90
32865;DHT22;19219;44.500;11.188;2023-09-19T04:19:28;18.90;99.90
32865;DHT22;19219;44.500;11.188;2023-09-19T04:21:54;18.90;99.90
32865;DHT22;19219;44.500;11.188;2023-09-19T04:24:20;18.90;99.90
32865;DHT22;19219;44.500;11.188;2023-09-19T04:26:46;18.90;99.90
32865;DHT22;19219;44.500;11.188;2023-09-19T04:29:11;19.00;99.90
32865;DHT22;19219;44.500;11.188;2023-09-19T04:31:39;19.10;99.90
32865;DHT22;19219;44.500;11.188;2023-09-19T04:34:06;19.10;99.90
32865;DHT22;19219;44.500;11.188;2023-09-19T04:36:33;19.20;99.90
32865;DHT22;19219;44.500;11.188;2023-09-19T04:38:59;19.20;99.90
32865;DHT22;19219;44.500;11.188;2023-09-19T04:41:24;19.10;99.90
32865;DHT22;19219;44.500;11.188;2023-09-19T04:43:50;19.00;99.90
32865;DHT22;19219;44.500;11.188;2023-09-19T04:46:16;18.80;99.90
32865;DHT22;19219;44.500;11.188;2023-09-19T04:48:43;18.80;99.90
32865;DHT22;19219;44.500;11.188;2023-09-19T04:51:09;18.80;99.90
32865;DHT22;19219;44.500;11.188;2023-09-19T04:53:36;18.80;99.90
32865;DHT22;19219;44.500;11.188;2023-09-19T04:56:02;18.80;99.90
32865;DHT22;19219;44.500;11.188;2023-09-19T04:58:29;18.80;99.90
32865;DHT22;19219;44.500;11.188;2023-09-19T05:00:55;19.00;99.90
32865;DHT22;19219;44.500;11.188;2023-09-19T05:03:21;18.90;99.90
32865;DHT22;19219;44.500;11.188;2023-09-19T05:05:47;19.00;99.90
32865;DHT22;19219;44.500;11.188;2023-09-19T05:08:14;19.00;99.90
32865;DHT22;19219;44.500;11.188;2023-09-19T05:10:40;19.00;99.90
32865;DHT22;19219;44.500;11.188;2023-09-19T05:13:06;19.10;99.90
32865;DHT22;19219;44.500;11.188;2023-09-19T05:15:35;19.10;99.90
32865;DHT22;19219;44.500;11.188;2023-09-19T05:18:02;19.00;99.90
32865;DHT22;19219;44.500;11.188;2023-09-19T05:20:28;18.90;99.90
32865;DHT22;19219;44.500;11.188;2023-09-19T05:23:04;19.00;99.90
32865;DHT22;19219;44.500;11.188;2023-09-19T05:25:38;18.90;99.90
32865;DHT22;19219;44.500;11.188;2023-09-19T05:28:08;18.90;99.90
32865;DHT22;19219;44.500;11.188;2023-09-19T05:30:35;19.00;99.90
32865;DHT22;19219;44.500;11.188;2023-09-19T05:33:04;18.90;99.90
32865;DHT22;19219;44.500;11.188;2023-09-19T05:35:31;18.90;99.90
32865;DHT22;19219;44.500;11.188;2023-09-19T05:37:57;18.80;99.90
32865;DHT22;19219;44.500;11.188;2023-09-19T05:40:24;18.80;99.90
32865;DHT22;19219;44.500;11.188;2023-09-19T05:42:50;18.90;99.90
32865;DHT22;19219;44.500;11.188;2023-09-19T05:45:16;19.00;99.90
32865;DHT22;19219;44.500;11.188;2023-09-19T05:47:51;19.00;99.90
32865;DHT22;19219;44.500;11.188;2023-09-19T05:50:21;19.10;99.90
32865;DHT22;19219;44.500;11.188;2023-09-19T05:52:54;19.10;99.90
32865;DHT22;19219;44.500;11.188;2023-09-19T05:55:21;19.10;99.90
32865;DHT22;19219;44.500;11.188;2023-09-19T05:57:53;19.20;99.90
32865;DHT22;19219;44.500;11.188;2023-09-19T06:00:19;19.30;99.90
32865;DHT22;19219;44.500;11.188;2023-09-19T06:02:53;19.50;99.90
32865;DHT22;19219;44.500;11.188;2023-09-19T06:05:19;19.60;99.90
32865;DHT22;19219;44.500;11.188;2023-09-19T06:07:45;19.70;99.90
32865;DHT22;19219;44.500;11.188;2023-09-19T06:10:12;19.80;99.90
32865;DHT22;19219;44.500;11.188;2023-09-19T06:12:38;19.90;99.90
32865;DHT22;19219;44.500;11.188;2023-09-19T06:15:05;20.10;99.90
32865;DHT22;19219;44.500;11.188;2023-09-19T06:17:31;20.20;99.90
32865;DHT22;19219;44.500;11.188;2023-09-19T06:19:57;20.40;99.90
32865;DHT22;19219;44.500;11.188;2023-09-19T06:22:23;20.70;99.90
32865;DHT22;19219;44.500;11.188;2023-09-19T06:24:49;20.90;99.90
32865;DHT22;19219;44.500;11.188;2023-09-19T06:27:15;21.10;99.90
32865;DHT22;19219;44.500;11.188;2023-09-19T06:29:41;21.50;99.90
32865;DHT22;19219;44.500;11.188;2023-09-19T06:32:10;22.70;99.90
32865;DHT22;19219;44.500;11.188;2023-09-19T06:34:36;24.50;99.90
32865;DHT22;19219;44.500;11.188;2023-09-19T06:37:04;26.30;99.90
32865;DHT22;19219;44.500;11.188;2023-09-19T06:39:31;27.90;99.90
32865;DHT22;19219;44.500;11.188;2023-09-19T06:41:57;29.40;99.90
32865;DHT22;19219;44.500;11.188;2023-09-19T06:44:23;30.60;99.90
32865;DHT22;19219;44.500;11.188;2023-09-19T06:46:50;31.60;99.90
32865;DHT22;19219;44.500;11.188;2023-09-19T06:49:17;32.90;99.90
32865;DHT22;19219;44.500;11.188;2023-09-19T06:51:43;33.80;99.90
32865;DHT22;19219;44.500;11.188;2023-09-19T06:54:10;34.40;99.90
32865;DHT22;19219;44.500;11.188;2023-09-19T06:56:35;35.20;98.10
32865;DHT22;19219;44.500;11.188;2023-09-19T06:59:01;35.30;96.00
32865;DHT22;19219;44.500;11.188;2023-09-19T07:01:28;36.00;95.00
32865;DHT22;19219;44.500;11.188;2023-09-19T07:03:54;36.30;94.40
32865;DHT22;19219;44.500;11.188;2023-09-19T07:06:20;36.80;93.30
32865;DHT22;19219;44.500;11.188;2023-09-19T07:08:46;37.10;92.30
32865;DHT22;19219;44.500;11.188;2023-09-19T07:11:11;37.40;91.20
32865;DHT22;19219;44.500;11.188;2023-09-19T07:13:38;37.20;90.50
32865;DHT22;19219;44.500;11.188;2023-09-19T07:16:04;37.40;88.80
32865;DHT22;19219;44.500;11.188;2023-09-19T07:18:30;37.60;87.20
32865;DHT22;19219;44.500;11.188;2023-09-19T07:20:58;37.80;85.50
32865;DHT22;19219;44.500;11.188;2023-09-19T07:23:30;37.80;84.30
32865;DHT22;19219;44.500;11.188;2023-09-19T07:26:00;37.70;82.70
32865;DHT22;19219;44.500;11.188;2023-09-19T07:28:26;37.20;81.60
32865;DHT22;19219;44.500;11.188;2023-09-19T07:30:53;37.10;81.20
32865;DHT22;19219;44.500;11.188;2023-09-19T07:33:19;37.50;80.40
32865;DHT22;19219;44.500;11.188;2023-09-19T07:35:48;38.20;76.90
32865;DHT22;19219;44.500;11.188;2023-09-19T07:38:14;38.90;73.90
32865;DHT22;19219;44.500;11.188;2023-09-19T07:40:40;38.40;73.60
32865;DHT22;19219;44.500;11.188;2023-09-19T07:43:05;39.20;71.80
32865;DHT22;19219;44.500;11.188;2023-09-19T07:45:32;39.00;69.90
32865;DHT22;19219;44.500;11.188;2023-09-19T07:47:58;39.40;68.20
32865;DHT22;19219;44.500;11.188;2023-09-19T07:50:25;39.40;64.40
32865;DHT22;19219;44.500;11.188;2023-09-19T07:52:52;39.00;64.50
32865;DHT22;19219;44.500;11.188;2023-09-19T07:55:19;39.40;63.60
32865;DHT22;19219;44.500;11.188;2023-09-19T07:57:46;39.20;61.70
32865;DHT22;19219;44.500;11.188;2023-09-19T08:00:12;38.70;62.80
32865;DHT22;19219;44.500;11.188;2023-09-19T08:02:39;38.50;63.40
32865;DHT22;19219;44.500;11.188;2023-09-19T08:05:06;37.50;65.20
32865;DHT22;19219;44.500;11.188;2023-09-19T08:07:33;37.80;66.40
32865;DHT22;19219;44.500;11.188;2023-09-19T08:09:58;38.20;67.80
32865;DHT22;19219;44.500;11.188;2023-09-19T08:12:24;38.00;67.80
32865;DHT22;19219;44.500;11.188;2023-09-19T08:14:50;38.50;68.10
32865;DHT22;19219;44.500;11.188;2023-09-19T08:17:16;39.60;67.20
32865;DHT22;19219;44.500;11.188;2023-09-19T08:19:42;40.00;65.60
32865;DHT22;19219;44.500;11.188;2023-09-19T08:22:10;40.30;64.30
32865;DHT22;19219;44.500;11.188;2023-09-19T08:24:36;40.00;65.30
32865;DHT22;19219;44.500;11.188;2023-09-19T08:27:04;39.60;64.70
32865;DHT22;19219;44.500;11.188;2023-09-19T08:29:31;39.60;64.40
32865;DHT22;19219;44.500;11.188;2023-09-19T08:31:57;39.00;64.50
32865;DHT22;19219;44.500;11.188;2023-09-19T08:34:24;38.70;66.00
32865;DHT22;19219;44.500;11.188;2023-09-19T08:36:54;39.50;66.60
32865;DHT22;19219;44.500;11.188;2023-09-19T08:39:23;40.30;64.70
32865;DHT22;19219;44.500;11.188;2023-09-19T08:41:49;40.90;62.40
32865;DHT22;19219;44.500;11.188;2023-09-19T08:44:15;40.90;62.10
32865;DHT22;19219;44.500;11.188;2023-09-19T08:46:41;40.90;60.60
32865;DHT22;19219;44.500;11.188;2023-09-19T08:49:19;40.40;61.50
32865;DHT22;19219;44.500;11.188;2023-09-19T08:51:53;40.70;61.70
32865;DHT22;19219;44.500;11.188;2023-09-19T08:54:25;41.30;60.50
32865;DHT22;19219;44.500;11.188;2023-09-19T08:56:54;41.20;59.90
32865;DHT22;19219;44.500;11.188;2023-09-19T08:59:23;41.10;59.10
32865;DHT22;19219;44.500;11.188;2023-09-19T09:01:50;41.30;59.40
32865;DHT22;19219;44.500;11.188;2023-09-19T09:04:19;41.20;59.30
32865;DHT22;19219;44.500;11.188;2023-09-19T09:06:45;40.30;58.90
32865;DHT22;19219;44.500;11.188;2023-09-19T09:09:14;40.20;59.80
32865;DHT22;19219;44.500;11.188;2023-09-19T09:11:40;40.40;60.10
32865;DHT22;19219;44.500;11.188;2023-09-19T09:14:07;40.90;59.10
32865;DHT22;19219;44.500;11.188;2023-09-19T09:16:33;41.30;58.30
32865;DHT22;19219;44.500;11.188;2023-09-19T09:19:00;41.60;57.70
32865;DHT22;19219;44.500;11.188;2023-09-19T09:21:27;42.00;57.40
32865;DHT22;19219;44.500;11.188;2023-09-19T09:23:54;42.00;56.50
32865;DHT22;19219;44.500;11.188;2023-09-19T09:26:43;40.50;57.50
32865;DHT22;19219;44.500;11.188;2023-09-19T09:29:09;40.80;58.30
32865;DHT22;19219;44.500;11.188;2023-09-19T09:31:34;41.10;58.00
32865;DHT22;19219;44.500;11.188;2023-09-19T09:34:00;40.90;57.30
32865;DHT22;19219;44.500;11.188;2023-09-19T09:36:39;39.80;58.30
32865;DHT22;19219;44.500;11.188;2023-09-19T09:39:09;39.20;59.20
32865;DHT22;19219;44.500;11.188;2023-09-19T09:41:50;39.60;59.60
32865;DHT22;19219;44.500;11.188;2023-09-19T09:44:17;39.60;59.80
32865;DHT22;19219;44.500;11.188;2023-09-19T09:46:45;38.70;59.90
32865;DHT22;19219;44.500;11.188;2023-09-19T09:49:40;37.80;61.00
32865;DHT22;19219;44.500;11.188;2023-09-19T09:52:07;36.80;61.20
32865;DHT22;19219;44.500;11.188;2023-09-19T09:54:35;35.80;64.10
32865;DHT22;19219;44.500;11.188;2023-09-19T09:57:09;34.70;66.60
32865;DHT22;19219;44.500;11.188;2023-09-19T09:59:56;34.30;68.50
32865;DHT22;19219;44.500;11.188;2023-09-19T10:02:54;34.10;69.40
32865;DHT22;19219;44.500;11.188;2023-09-19T10:05:20;33.60;71.20
32865;DHT22;19219;44.500;11.188;2023-09-19T10:07:48;33.50;72.80
32865;DHT22;19219;44.500;11.188;2023-09-19T10:10:35;33.60;72.70
32865;DHT22;19219;44.500;11.188;2023-09-19T10:13:09;33.40;72.20
32865;DHT22;19219;44.500;11.188;2023-09-19T10:15:37;33.30;73.10
32865;DHT22;19219;44.500;11.188;2023-09-19T10:18:06;33.30;74.30
32865;DHT22;19219;44.500;11.188;2023-09-19T10:20:36;33.40;74.80
32865;DHT22;19219;44.500;11.188;2023-09-19T10:23:09;33.60;75.60
32865;DHT22;19219;44.500;11.188;2023-09-19T10:25:40;33.70;75.00
32865;DHT22;19219;44.500;11.188;2023-09-19T10:28:10;33.80;75.90
32865;DHT22;19219;44.500;11.188;2023-09-19T10:30:43;33.60;75.60
32865;DHT22;19219;44.500;11.188;2023-09-19T10:33:15;33.00;77.40
32865;DHT22;19219;44.500;11.188;2023-09-19T10:35:46;33.00;79.10
32865;DHT22;19219;44.500;11.188;2023-09-19T10:38:13;33.20;79.50
32865;DHT22;19219;44.500;11.188;2023-09-19T10:40:40;32.80;79.50
32865;DHT22;19219;44.500;11.188;2023-09-19T10:43:13;32.60;80.90
32865;DHT22;19219;44.500;11.188;2023-09-19T10:45:44;32.60;82.40
32865;DHT22;19219;44.500;11.188;2023-09-19T10:48:10;32.60;82.20
32865;DHT22;19219;44.500;11.188;2023-09-19T10:50:48;32.80;82.70
32865;DHT22;19219;44.500;11.188;2023-09-19T10:53:16;33.00;82.10
32865;DHT22;19219;44.500;11.188;2023-09-19T10:55:50;33.00;81.20
32865;DHT22;19219;44.500;11.188;2023-09-19T10:58:31;32.70;83.70
32865;DHT22;19219;44.500;11.188;2023-09-19T11:01:02;32.40;83.40
32865;DHT22;19219;44.500;11.188;2023-09-19T11:03:33;32.10;87.00
32865;DHT22;19219;44.500;11.188;2023-09-19T11:06:10;32.00;85.90
32865;DHT22;19219;44.500;11.188;2023-09-19T11:08:59;32.00;85.80
32865;DHT22;19219;44.500;11.188;2023-09-19T11:30:44;32.20;86.00
32865;DHT22;19219;44.500;11.188;2023-09-19T11:33:26;32.20;85.40
32865;DHT22;19219;44.500;11.188;2023-09-19T11:36:14;32.00;85.40
32865;DHT22;19219;44.500;11.188;2023-09-19T11:46:24;31.90;86.40
32865;DHT22;19219;44.500;11.188;2023-09-19T11:48:53;31.90;86.10
32865;DHT22;19219;44.500;11.188;2023-09-19T11:51:20;32.00;86.90
32865;DHT22;19219;44.500;11.188;2023-09-19T11:53:58;31.30;86.60
32865;DHT22;19219;44.500;11.188;2023-09-19T11:56:27;31.80;87.30
32865;DHT22;19219;44.500;11.188;2023-09-19T11:58:54;31.80;87.00
32865;DHT22;19219;44.500;11.188;2023-09-19T12:01:30;31.50;86.70
32865;DHT22;19219;44.500;11.188;2023-09-19T12:03:58;31.50;86.00
32865;DHT22;19219;44.500;11.188;2023-09-19T12:06:29;31.50;86.10
32865;DHT22;19219;44.500;11.188;2023-09-19T12:08:55;31.80;86.50
32865;DHT22;19219;44.500;11.188;2023-09-19T12:11:23;31.80;86.20
32865;DHT22;19219;44.500;11.188;2023-09-19T12:13:50;31.80;85.20
32865;DHT22;19219;44.500;11.188;2023-09-19T12:16:20;31.90;84.80
32865;DHT22;19219;44.500;11.188;2023-09-19T12:18:51;31.70;86.40
32865;DHT22;19219;44.500;11.188;2023-09-19T12:21:27;31.60;89.50
32865;DHT22;19219;44.500;11.188;2023-09-19T12:24:13;31.50;88.90
32865;DHT22;19219;44.500;11.188;2023-09-19T12:26:47;31.40;90.10
32865;DHT22;19219;44.500;11.188;2023-09-19T12:29:17;31.30;90.40
32865;DHT22;19219;44.500;11.188;2023-09-19T12:31:56;31.10;90.30
32865;DHT22;19219;44.500;11.188;2023-09-19T12:34:30;31.20;90.20
32865;DHT22;19219;44.500;11.188;2023-09-19T12:37:13;31.20;88.80
32865;DHT22;19219;44.500;11.188;2023-09-19T12:39:50;31.10;89.40
32865;DHT22;19219;44.500;11.188;2023-09-19T12:42:23;31.10;88.80
32865;DHT22;19219;44.500;11.188;2023-09-19T12:44:51;31.10;88.50
32865;DHT22;19219;44.500;11.188;2023-09-19T12:47:20;31.10;90.00
32865;DHT22;19219;44.500;11.188;2023-09-19T12:50:08;31.10;90.00
32865;DHT22;19219;44.500;11.188;2023-09-19T12:52:49;31.20;89.90
32865;DHT22;19219;44.500;11.188;2023-09-19T13:00:35;31.20;90.20
32865;DHT22;19219;44.500;11.188;2023-09-19T13:03:15;31.20;90.10
32865;DHT22;19219;44.500;11.188;2023-09-19T13:05:52;31.20;90.50
32865;DHT22;19219;44.500;11.188;2023-09-19T13:08:25;31.30;90.40
32865;DHT22;19219;44.500;11.188;2023-09-19T13:11:15;31.20;90.30
32865;DHT22;19219;44.500;11.188;2023-09-19T13:13:49;31.30;90.70
32865;DHT22;19219;44.500;11.188;2023-09-19T13:16:16;31.30;90.80
32865;DHT22;19219;44.500;11.188;2023-09-19T13:18:49;31.30;91.10
32865;DHT22;19219;44.500;11.188;2023-09-19T13:21:34;31.50;90.90
32865;DHT22;19219;44.500;11.188;2023-09-19T13:24:22;31.50;90.50
32865;DHT22;19219;44.500;11.188;2023-09-19T13:26:49;31.50;90.60
32865;DHT22;19219;44.500;11.188;2023-09-19T13:29:15;31.50;90.30
32865;DHT22;19219;44.500;11.188;2023-09-19T13:31:50;31.60;90.50
32865;DHT22;19219;44.500;11.188;2023-09-19T13:34:18;31.60;90.20
32865;DHT22;19219;44.500;11.188;2023-09-19T13:36:45;31.70;90.00
32865;DHT22;19219;44.500;11.188;2023-09-19T13:39:16;31.30;89.60
32865;DHT22;19219;44.500;11.188;2023-09-19T13:41:46;31.40;90.80
32865;DHT22;19219;44.500;11.188;2023-09-19T13:44:12;31.60;90.20
32865;DHT22;19219;44.500;11.188;2023-09-19T13:46:39;31.70;90.30
32865;DHT22;19219;44.500;11.188;2023-09-19T13:49:06;31.90;89.80
32865;DHT22;19219;44.500;11.188;2023-09-19T13:51:32;31.90;88.20
32865;DHT22;19219;44.500;11.188;2023-09-19T13:53:57;32.00;88.70
32865;DHT22;19219;44.500;11.188;2023-09-19T13:56:25;31.90;88.80
32865;DHT22;19219;44.500;11.188;2023-09-19T13:58:55;31.90;88.60
32865;DHT22;19219;44.500;11.188;2023-09-19T14:01:21;31.90;88.60
32865;DHT22;19219;44.500;11.188;2023-09-19T14:03:47;32.00;89.30
32865;DHT22;19219;44.500;11.188;2023-09-19T14:06:17;31.90;89.10
32865;DHT22;19219;44.500;11.188;2023-09-19T14:08:46;31.60;89.40
32865;DHT22;19219;44.500;11.188;2023-09-19T14:11:15;31.50;89.80
32865;DHT22;19219;44.500;11.188;2023-09-19T14:13:41;31.60;90.10
32865;DHT22;19219;44.500;11.188;2023-09-19T14:16:12;31.70;89.40
32865;DHT22;19219;44.500;11.188;2023-09-19T14:18:38;31.80;90.00
32865;DHT22;19219;44.500;11.188;2023-09-19T14:21:04;31.80;89.00
32865;DHT22;19219;44.500;11.188;2023-09-19T14:23:40;31.70;90.10
32865;DHT22;19219;44.500;11.188;2023-09-19T14:26:07;31.40;90.20
32865;DHT22;19219;44.500;11.188;2023-09-19T14:28:34;31.20;90.70
32865;DHT22;19219;44.500;11.188;2023-09-19T14:31:07;31.00;90.70
32865;DHT22;19219;44.500;11.188;2023-09-19T14:33:33;31.00;90.70
32865;DHT22;19219;44.500;11.188;2023-09-19T14:36:06;31.00;90.60
32865;DHT22;19219;44.500;11.188;2023-09-19T14:38:34;31.10;90.80
32865;DHT22;19219;44.500;11.188;2023-09-19T14:41:01;31.20;90.60
32865;DHT22;19219;44.500;11.188;2023-09-19T14:43:27;31.30;91.10
32865;DHT22;19219;44.500;11.188;2023-09-19T14:45:54;31.50;90.10
32865;DHT22;19219;44.500;11.188;2023-09-19T14:48:20;31.60;90.50
32865;DHT22;19219;44.500;11.188;2023-09-19T14:50:48;31.40;90.10
32865;DHT22;19219;44.500;11.188;2023-09-19T14:53:16;31.30;90.40
32865;DHT22;19219;44.500;11.188;2023-09-19T14:55:41;31.40;90.60
32865;DHT22;19219;44.500;11.188;2023-09-19T14:58:10;31.40;90.60
32865;DHT22;19219;44.500;11.188;2023-09-19T15:00:36;31.40;90.80
32865;DHT22;19219;44.500;11.188;2023-09-19T15:03:02;31.40;90.80
32865;DHT22;19219;44.500;11.188;2023-09-19T15:05:28;31.30;90.70
32865;DHT22;19219;44.500;11.188;2023-09-19T15:07:55;31.30;90.50
32865;DHT22;19219;44.500;11.188;2023-09-19T15:10:22;31.30;90.40
32865;DHT22;19219;44.500;11.188;2023-09-19T15:12:48;31.30;90.70
32865;DHT22;19219;44.500;11.188;2023-09-19T15:15:14;31.20;90.80
32865;DHT22;19219;44.500;11.188;2023-09-19T15:17:40;31.20;91.00
32865;DHT22;19219;44.500;11.188;2023-09-19T15:20:07;31.30;90.60
32865;DHT22;19219;44.500;11.188;2023-09-19T15:22:33;31.30;90.90
32865;DHT22;19219;44.500;11.188;2023-09-19T15:25:00;31.30;91.20
32865;DHT22;19219;44.500;11.188;2023-09-19T15:27:28;31.20;90.90
32865;DHT22;19219;44.500;11.188;2023-09-19T15:29:59;31.10;91.00
32865;DHT22;19219;44.500;11.188;2023-09-19T15:32:25;31.10;91.40
32865;DHT22;19219;44.500;11.188;2023-09-19T15:34:51;31.20;91.70
32865;DHT22;19219;44.500;11.188;2023-09-19T15:37:17;31.30;91.50
32865;DHT22;19219;44.500;11.188;2023-09-19T15:39:43;31.30;91.10
32865;DHT22;19219;44.500;11.188;2023-09-19T15:42:10;31.30;91.50
32865;DHT22;19219;44.500;11.188;2023-09-19T15:44:36;31.20;91.20
32865;DHT22;19219;44.500;11.188;2023-09-19T15:47:03;31.20;91.30
32865;DHT22;19219;44.500;11.188;2023-09-19T15:49:29;31.20;91.10
32865;DHT22;19219;44.500;11.188;2023-09-19T15:51:55;31.00;91.70
32865;DHT22;19219;44.500;11.188;2023-09-19T15:54:21;31.00;91.80
32865;DHT22;19219;44.500;11.188;2023-09-19T15:56:47;31.00;91.90
32865;DHT22;19219;44.500;11.188;2023-09-19T15:59:14;30.90;92.20
32865;DHT22;19219;44.500;11.188;2023-09-19T16:01:44;30.90;92.40
32865;DHT22;19219;44.500;11.188;2023-09-19T16:04:10;30.90;92.20
32865;DHT22;19219;44.500;11.188;2023-09-19T16:06:37;30.90;92.10
32865;DHT22;19219;44.500;11.188;2023-09-19T16:09:06;30.90;92.10
32865;DHT22;19219;44.500;11.188;2023-09-19T16:11:34;30.80;92.40
32865;DHT22;19219;44.500;11.188;2023-09-19T16:14:01;30.70;92.20
32865;DHT22;19219;44.500;11.188;2023-09-19T16:16:28;30.50;92.60